Terminal Aerodrome Forecast
Issued by NWS

Current Version | Previous Version | Graphics & Text | Print | Product List | Glossary On
Versions: 1 2 3 4 5 6 7 8 9 10 11 12 13 14 15 16 17 18 19 20 21 22 23 24
472
FTUS41 KRLX 262320
TAFCKB
TAF
KCKB 262320Z 2700/2724 17009KT 6SM SHRA VCTS SCT025 BKN045CB
      TEMPO 2700/2703 5SM SHRA OVC025
     FM270300 18006KT 6SM SHRA SCT025 BKN040
     FM270800 22005KT P6SM BKN025
     FM271000 17003KT P6SM OVC015
     FM271500 22008KT P6SM BKN035=

USA.gov is the U.S. government's official web portal to all federal, state and local government web resources and services.